Terminal Aerodrome Forecast
Issued by NWS Salt Lake City, UT

Home | Current Version | Previous Version | Text Only | Print | Product List | Glossary On
Versions: 1 2 3 4 5 6 7 8 9 10 11 12 13 14 15 16 17 18
000
FTUS45 KSLC 260744 AAA
TAFCDC
TAF AMD
KCDC 260744Z 2608/2706 19018G28KT P6SM SCT110
     FM261000 18010KT P6SM SCT110
     FM261500 23010G20KT P6SM FEW120
     FM270300 VRB05KT P6SM FEW120=

USA.gov is the U.S. government's official web portal to all federal, state and local government web resources and services.